createdAt,value
2023-03-12T00:54:52.802Z,0.50
2023-03-12T00:55:53.748Z,0.50
2023-03-12T00:56:53.757Z,0.50
2023-03-12T00:57:53.737Z,0.50
2023-03-12T00:58:53.723Z,0.50
2023-03-12T00:59:53.719Z,0.50
2023-03-12T01:00:53.747Z,0.40
2023-03-12T01:01:53.704Z,0.36
2023-03-12T01:02:53.695Z,0.35
2023-03-12T01:03:53.717Z,0.36
2023-03-12T01:04:53.673Z,0.38
2023-03-12T01:05:53.670Z,0.41
2023-03-12T01:06:53.661Z,0.47
2023-03-12T01:07:53.645Z,0.50
2023-03-12T01:08:53.641Z,0.50
2023-03-12T01:09:53.632Z,0.50
2023-03-12T01:10:53.654Z,0.50
2023-03-12T01:11:53.616Z,0.51
2023-03-12T01:12:53.610Z,0.50
2023-03-12T01:13:53.597Z,0.50
2023-03-12T01:14:53.587Z,0.50
2023-03-12T01:15:53.583Z,0.50
2023-03-12T01:16:53.680Z,0.50
2023-03-12T01:17:53.572Z,0.51
2023-03-12T01:18:53.560Z,0.50
2023-03-12T01:19:53.556Z,0.50
2023-03-12T01:20:53.550Z,0.51
2023-03-12T01:21:53.531Z,0.50
2023-03-12T01:22:53.522Z,0.50
2023-03-12T01:23:53.519Z,0.52
2023-03-12T01:24:53.526Z,0.51
2023-03-12T01:25:53.500Z,0.51
2023-03-12T01:26:53.526Z,0.51
2023-03-12T01:27:53.480Z,0.50
2023-03-12T01:28:53.474Z,0.51
2023-03-12T01:29:53.472Z,0.51
2023-03-12T01:30:53.497Z,0.51
2023-03-12T01:31:53.503Z,0.51
2023-03-12T01:32:53.500Z,0.50
2023-03-12T01:33:53.450Z,0.50
2023-03-12T01:34:53.423Z,0.50
2023-03-12T01:35:53.542Z,0.52
2023-03-12T01:36:53.484Z,0.51
2023-03-12T01:37:53.409Z,0.51
2023-03-12T01:38:53.398Z,0.51
2023-03-12T01:39:53.384Z,0.51
2023-03-12T01:40:53.377Z,0.50
2023-03-12T01:41:53.367Z,0.51
2023-03-12T01:42:53.398Z,0.51
2023-03-12T01:43:53.356Z,0.51
2023-03-12T01:44:53.344Z,0.51
2023-03-12T01:45:53.360Z,0.51
2023-03-12T01:46:53.330Z,0.51
2023-03-12T01:47:53.324Z,0.51
2023-03-12T01:48:53.307Z,0.50
2023-03-12T01:49:53.295Z,0.52
2023-03-12T01:50:53.290Z,0.52
2023-03-12T01:51:53.278Z,0.52
2023-03-12T01:52:53.280Z,0.52
2023-03-12T01:53:53.265Z,0.51
2023-03-12T01:54:53.256Z,0.51
2023-03-12T01:55:53.256Z,0.51
2023-03-12T01:56:53.246Z,0.51
2023-03-12T01:57:53.232Z,0.51
2023-03-12T01:58:53.249Z,0.51
2023-03-12T01:59:53.213Z,0.51
2023-03-12T02:00:53.240Z,0.51
2023-03-12T02:01:53.209Z,0.51
2023-03-12T02:02:53.192Z,0.51
2023-03-12T02:03:53.273Z,0.51
2023-03-12T02:04:53.169Z,0.50
2023-03-12T02:05:53.163Z,0.51
2023-03-12T02:06:53.165Z,0.50
2023-03-12T02:07:53.171Z,0.51
2023-03-12T02:08:53.135Z,0.51
2023-03-12T02:09:53.129Z,0.51
2023-03-12T02:10:53.132Z,0.51
2023-03-12T02:11:53.110Z,0.50
2023-03-12T02:12:53.102Z,0.51
2023-03-12T02:13:53.105Z,0.51
2023-03-12T02:14:53.112Z,0.51
2023-03-12T02:15:53.086Z,0.51
2023-03-12T02:16:53.222Z,0.51
2023-03-12T02:17:53.062Z,0.51
2023-03-12T02:18:53.086Z,0.52
2023-03-12T02:19:53.046Z,0.51
2023-03-12T02:20:53.036Z,0.52
2023-03-12T02:21:53.030Z,0.52
2023-03-12T02:22:53.021Z,0.52
2023-03-12T02:23:53.013Z,0.52
2023-03-12T02:24:53.016Z,0.50
2023-03-12T02:25:53.004Z,0.51
2023-03-12T02:26:52.989Z,0.51
2023-03-12T02:27:52.977Z,0.51
2023-03-12T02:28:52.975Z,0.52
2023-03-12T02:29:52.970Z,0.50
2023-03-12T02:30:52.978Z,0.52
2023-03-12T02:31:53.036Z,0.51
2023-03-12T02:32:53.045Z,0.52
2023-03-12T02:33:52.935Z,0.52
2023-03-12T02:34:52.920Z,0.51
2023-03-12T02:35:53.010Z,0.52
2023-03-12T02:36:52.910Z,0.51
2023-03-12T02:37:52.891Z,0.51
2023-03-12T02:38:52.890Z,0.52
2023-03-12T02:39:52.877Z,0.52
2023-03-12T02:40:52.986Z,0.51
2023-03-12T02:41:52.859Z,0.51
2023-03-12T02:42:52.856Z,0.52
2023-03-12T02:43:52.846Z,0.52
2023-03-12T02:44:52.833Z,0.51
2023-03-12T02:45:52.828Z,0.52
2023-03-12T02:46:52.850Z,0.51
2023-03-12T02:47:52.814Z,0.52
2023-03-12T02:48:52.838Z,0.51
2023-03-12T02:49:52.799Z,0.52
2023-03-12T02:50:52.784Z,0.51
2023-03-12T02:51:52.789Z,0.51
2023-03-12T02:52:52.773Z,0.51
2023-03-12T02:53:52.762Z,0.52
2023-03-12T02:54:52.755Z,0.50
2023-03-12T02:55:52.741Z,0.52
2023-03-12T02:56:52.733Z,0.52
2023-03-12T02:57:52.728Z,0.51
2023-03-12T02:58:52.716Z,0.52
2023-03-12T02:59:52.711Z,0.52
2023-03-12T03:00:52.705Z,0.52
2023-03-12T03:01:52.693Z,0.51
2023-03-12T03:02:52.713Z,0.52
2023-03-12T03:03:52.717Z,0.52
2023-03-12T03:04:52.668Z,0.51
2023-03-12T03:05:52.663Z,0.53
2023-03-12T03:06:52.668Z,0.52
2023-03-12T03:07:52.653Z,0.51
2023-03-12T03:08:52.637Z,0.52
2023-03-12T03:09:52.624Z,0.51
2023-03-12T03:10:52.631Z,0.52
2023-03-12T03:11:52.610Z,0.51
2023-03-12T03:12:52.598Z,0.52
2023-03-12T03:13:52.591Z,0.51
2023-03-12T03:14:52.592Z,0.51
2023-03-12T03:15:52.616Z,0.51
2023-03-12T03:16:52.561Z,0.51
2023-03-12T03:17:52.559Z,0.51
2023-03-12T03:18:52.602Z,0.51
2023-03-12T03:19:52.544Z,0.52
2023-03-12T03:20:52.532Z,0.51
2023-03-12T03:21:52.523Z,0.51
2023-03-12T03:22:52.514Z,0.51
2023-03-12T03:23:52.507Z,0.52
2023-03-12T03:24:52.503Z,0.51
2023-03-12T03:25:52.486Z,0.51
2023-03-12T03:26:52.480Z,0.52
2023-03-12T03:27:52.475Z,0.52
2023-03-12T03:28:52.469Z,0.52
2023-03-12T03:29:52.459Z,0.52
2023-03-12T03:30:52.497Z,0.52
2023-03-12T03:31:52.436Z,0.52
2023-03-12T03:32:52.451Z,0.52
2023-03-12T03:33:52.424Z,0.51
2023-03-12T03:34:52.439Z,0.52
2023-03-12T03:35:52.437Z,0.52
2023-03-12T03:36:52.397Z,0.52
2023-03-12T03:37:52.391Z,0.52
2023-03-12T03:38:52.378Z,0.51
2023-03-12T03:39:52.394Z,0.51
2023-03-12T03:40:52.375Z,0.51
2023-03-12T03:41:52.348Z,0.52
2023-03-12T03:42:52.346Z,0.52
2023-03-12T03:43:52.339Z,0.53
2023-03-12T03:44:52.324Z,0.52
2023-03-12T03:45:52.372Z,0.52
2023-03-12T03:46:52.312Z,0.51
2023-03-12T03:47:52.306Z,0.51
2023-03-12T03:48:52.286Z,0.51
2023-03-12T03:49:52.287Z,0.52
2023-03-12T03:50:52.324Z,0.52
2023-03-12T03:51:52.268Z,0.52
2023-03-12T03:52:52.256Z,0.51
2023-03-12T03:53:52.252Z,0.50
2023-03-12T03:54:52.243Z,0.51
2023-03-12T03:55:52.233Z,0.51
2023-03-12T03:56:52.235Z,0.51
2023-03-12T03:57:52.214Z,0.51
2023-03-12T03:58:52.205Z,0.51
2023-03-12T03:59:52.201Z,0.51
2023-03-12T04:00:52.208Z,0.51
2023-03-12T04:01:52.186Z,0.51
2023-03-12T04:02:52.171Z,0.51
2023-03-12T04:03:52.163Z,0.52
2023-03-12T04:04:52.156Z,0.53
2023-03-12T04:05:52.220Z,0.52
2023-03-12T04:06:52.164Z,0.51
2023-03-12T04:07:52.129Z,0.51
2023-03-12T04:08:52.120Z,0.52
2023-03-12T04:09:52.112Z,0.51
2023-03-12T04:10:52.118Z,0.51
2023-03-12T04:11:52.095Z,0.51
2023-03-12T04:12:52.095Z,0.51
2023-03-12T04:13:52.078Z,0.51
2023-03-12T04:14:52.077Z,0.52
2023-03-12T04:15:52.116Z,0.52
2023-03-12T04:16:52.050Z,0.51
2023-03-12T04:17:52.100Z,0.51
2023-03-12T04:18:52.038Z,0.51
2023-03-12T04:19:52.041Z,0.51
2023-03-12T04:20:52.017Z,0.51
2023-03-12T04:21:52.014Z,0.51
2023-03-12T04:22:52.028Z,0.51
2023-03-12T04:23:51.991Z,0.51
2023-03-12T04:24:51.987Z,0.51
2023-03-12T04:25:51.992Z,0.50
2023-03-12T04:26:51.975Z,0.51
2023-03-12T04:27:51.961Z,0.51
2023-03-12T04:28:51.960Z,0.51
2023-03-12T04:29:51.947Z,0.51
2023-03-12T04:30:52.014Z,0.51
2023-03-12T04:31:51.925Z,0.52
2023-03-12T04:32:51.974Z,0.51
2023-03-12T04:33:51.929Z,0.50
2023-03-12T04:34:51.900Z,0.51
2023-03-12T04:35:51.992Z,0.51
2023-03-12T04:36:51.879Z,0.51
2023-03-12T04:37:51.884Z,0.51
2023-03-12T04:38:51.899Z,0.51
2023-03-12T04:39:51.864Z,0.51
2023-03-12T04:40:51.849Z,0.52
2023-03-12T04:41:51.842Z,0.52
2023-03-12T04:42:51.883Z,0.51
2023-03-12T04:43:51.827Z,0.52
2023-03-12T04:44:51.820Z,0.53
2023-03-12T04:45:51.816Z,0.52
2023-03-12T04:46:51.872Z,0.52
2023-03-12T04:47:51.804Z,0.52
2023-03-12T04:48:51.795Z,0.52
2023-03-12T04:49:51.782Z,0.52
2023-03-12T04:50:51.766Z,0.51
2023-03-12T04:51:51.758Z,0.52
2023-03-12T04:52:51.759Z,0.52
2023-03-12T04:53:51.744Z,0.52
2023-03-12T04:54:51.766Z,0.52
2023-03-12T04:55:51.738Z,0.51
2023-03-12T04:56:51.741Z,0.53
2023-03-12T04:57:51.706Z,0.52
2023-03-12T04:58:51.706Z,0.53
2023-03-12T04:59:51.696Z,0.53
2023-03-12T05:00:51.708Z,0.53
2023-03-12T05:01:51.723Z,0.53
2023-03-12T05:02:51.739Z,0.53
2023-03-12T05:03:51.747Z,0.52
2023-03-12T05:04:51.649Z,0.53
2023-03-12T05:05:51.647Z,0.53
2023-03-12T05:06:51.643Z,0.52
2023-03-12T05:07:51.629Z,0.53
2023-03-12T05:08:51.621Z,0.51
2023-03-12T05:09:51.613Z,0.53
2023-03-12T05:10:51.640Z,0.53
2023-03-12T05:11:51.594Z,0.52
2023-03-12T05:12:51.584Z,0.53
2023-03-12T05:13:51.598Z,0.53
2023-03-12T05:14:51.573Z,0.52
2023-03-12T05:15:51.569Z,0.53
2023-03-12T05:16:51.563Z,0.52
2023-03-12T05:17:51.555Z,0.52
2023-03-12T05:18:51.538Z,0.53
2023-03-12T05:19:51.533Z,0.54
2023-03-12T05:20:51.520Z,0.52
2023-03-12T05:21:51.512Z,0.53
2023-03-12T05:22:51.503Z,0.53
2023-03-12T05:23:51.494Z,0.53
2023-03-12T05:24:51.495Z,0.53
2023-03-12T05:25:51.481Z,0.53
2023-03-12T05:26:51.492Z,0.53
2023-03-12T05:27:51.464Z,0.52
2023-03-12T05:28:51.456Z,0.53
2023-03-12T05:29:51.447Z,0.54
2023-03-12T05:30:51.441Z,0.53
2023-03-12T05:31:51.542Z,0.53
2023-03-12T05:32:51.493Z,0.52
2023-03-12T05:33:52.890Z,0.52
2023-03-12T05:34:51.608Z,0.54
2023-03-12T05:35:51.645Z,0.54
2023-03-12T05:36:51.604Z,0.53
2023-03-12T05:37:51.582Z,0.54
2023-03-12T05:38:51.579Z,0.53
2023-03-12T05:39:51.571Z,0.53
2023-03-12T05:40:51.555Z,0.53
2023-03-12T05:41:51.545Z,0.53
2023-03-12T05:42:51.572Z,0.53
2023-03-12T05:43:51.531Z,0.53
2023-03-12T05:44:51.531Z,0.52
2023-03-12T05:45:51.603Z,0.54
2023-03-12T05:46:51.513Z,0.53
2023-03-12T05:47:51.507Z,0.52
2023-03-12T05:48:51.499Z,0.53
2023-03-12T05:49:51.479Z,0.53
2023-03-12T05:50:51.471Z,0.53
2023-03-12T05:51:51.499Z,0.52
2023-03-12T05:52:51.458Z,0.53
2023-03-12T05:53:51.444Z,0.53
2023-03-12T05:54:51.436Z,0.53
2023-03-12T05:55:51.434Z,0.53
2023-03-12T05:56:51.432Z,0.54
2023-03-12T05:57:51.407Z,0.53
2023-03-12T05:58:51.446Z,0.54
2023-03-12T05:59:51.399Z,0.52
2023-03-12T06:00:51.384Z,0.53
2023-03-12T06:01:51.410Z,0.53
2023-03-12T06:02:51.365Z,0.52
2023-03-12T06:03:51.370Z,0.53
2023-03-12T06:04:51.353Z,0.52
2023-03-12T06:05:51.340Z,0.53
2023-03-12T06:06:51.335Z,0.52
2023-03-12T06:07:51.329Z,0.52
2023-03-12T06:08:51.313Z,0.54
2023-03-12T06:09:51.306Z,0.53
2023-03-12T06:10:51.301Z,0.53
2023-03-12T06:11:51.286Z,0.53
2023-03-12T06:12:51.276Z,0.53
2023-03-12T06:13:51.271Z,0.54
2023-03-12T06:14:51.298Z,0.53
2023-03-12T06:15:51.259Z,0.53
2023-03-12T06:16:51.395Z,0.52
2023-03-12T06:17:51.242Z,0.53
2023-03-12T06:18:51.226Z,0.53
2023-03-12T06:19:51.222Z,0.53
2023-03-12T06:20:51.210Z,0.53
2023-03-12T06:21:51.216Z,0.53
2023-03-12T06:22:51.188Z,0.52
2023-03-12T06:23:51.183Z,0.52
2023-03-12T06:24:51.176Z,0.52
2023-03-12T06:25:51.164Z,0.52
2023-03-12T06:26:51.159Z,0.52
2023-03-12T06:27:51.154Z,0.53
2023-03-12T06:28:51.151Z,0.52
2023-03-12T06:29:51.133Z,0.52
2023-03-12T06:30:51.160Z,0.52
2023-03-12T06:31:51.207Z,0.53
2023-03-12T06:32:51.144Z,0.52
2023-03-12T06:33:51.116Z,0.53
2023-03-12T06:34:51.091Z,0.52
2023-03-12T06:35:51.198Z,0.52
2023-03-12T06:36:51.309Z,0.52
2023-03-12T06:37:51.062Z,0.52
2023-03-12T06:38:51.056Z,0.53
2023-03-12T06:39:51.044Z,0.52
2023-03-12T06:40:51.042Z,0.52
2023-03-12T06:41:51.074Z,0.52
2023-03-12T06:42:51.029Z,0.53
2023-03-12T06:43:51.028Z,0.52
2023-03-12T06:44:50.999Z,0.52
2023-03-12T06:45:50.992Z,0.53
2023-03-12T06:46:51.056Z,0.52
2023-03-12T06:47:50.984Z,0.53
2023-03-12T06:48:50.971Z,0.52
2023-03-12T06:49:50.965Z,0.52
2023-03-12T06:50:50.953Z,0.53
2023-03-12T06:51:50.945Z,0.52
2023-03-12T06:52:50.938Z,0.53
2023-03-12T06:53:50.934Z,0.52
2023-03-12T06:54:50.917Z,0.52
2023-03-12T06:55:50.943Z,0.52
2023-03-12T06:56:50.907Z,0.52
2023-03-12T06:57:50.896Z,0.52
2023-03-12T06:58:50.885Z,0.53
2023-03-12T06:59:50.869Z,0.52
2023-03-12T07:00:50.869Z,0.52
2023-03-12T07:01:50.932Z,0.52
2023-03-12T07:02:50.880Z,0.52
2023-03-12T07:03:50.844Z,0.52
2023-03-12T07:04:50.854Z,0.52
2023-03-12T07:05:50.844Z,0.51
2023-03-12T07:06:50.818Z,0.51
2023-03-12T07:07:50.816Z,0.53
2023-03-12T07:08:50.802Z,0.52
2023-03-12T07:09:50.796Z,0.51
2023-03-12T07:10:50.800Z,0.52
2023-03-12T07:11:50.779Z,0.52
2023-03-12T07:12:50.780Z,0.52
2023-03-12T07:13:50.767Z,0.52
2023-03-12T07:14:50.760Z,0.51
2023-03-12T07:15:50.801Z,0.52
2023-03-12T07:16:50.743Z,0.52
2023-03-12T07:17:50.759Z,0.51
2023-03-12T07:18:50.765Z,0.52
2023-03-12T07:19:50.727Z,0.52
2023-03-12T07:20:50.711Z,0.52
2023-03-12T07:21:50.694Z,0.51
2023-03-12T07:22:50.691Z,0.52
2023-03-12T07:23:50.694Z,0.51
2023-03-12T07:24:50.689Z,0.51
2023-03-12T07:25:50.669Z,0.51
2023-03-12T07:26:50.681Z,0.52
2023-03-12T07:27:50.662Z,0.51
2023-03-12T07:28:50.647Z,0.52
2023-03-12T07:29:50.627Z,0.52
2023-03-12T07:30:50.700Z,0.52
2023-03-12T07:31:50.614Z,0.52
2023-03-12T07:32:50.666Z,0.52
2023-03-12T07:33:50.732Z,0.52
2023-03-12T07:34:50.618Z,0.52
2023-03-12T07:35:51.948Z,0.52
2023-03-12T07:36:50.816Z,0.51
2023-03-12T07:37:50.589Z,0.52
2023-03-12T07:38:50.590Z,0.52
2023-03-12T07:39:50.620Z,0.51
2023-03-12T07:40:50.559Z,0.51
2023-03-12T07:41:50.590Z,0.51
2023-03-12T07:42:50.542Z,0.51
2023-03-12T07:43:50.571Z,0.52
2023-03-12T07:44:50.662Z,0.52
2023-03-12T07:45:50.558Z,0.51
2023-03-12T07:46:50.638Z,0.52
2023-03-12T07:47:50.638Z,0.51
2023-03-12T07:48:50.845Z,0.52
2023-03-12T07:49:50.554Z,0.51
2023-03-12T07:50:50.957Z,0.52
2023-03-12T07:51:50.510Z,0.51
2023-03-12T07:52:50.485Z,0.51
2023-03-12T07:53:50.546Z,0.51
2023-03-12T07:54:50.471Z,0.51
2023-03-12T07:55:50.574Z,0.51
2023-03-12T07:56:50.772Z,0.51
2023-03-12T07:57:50.458Z,0.51
2023-03-12T07:58:50.586Z,0.51
2023-03-12T07:59:50.491Z,0.51
2023-03-12T08:00:50.557Z,0.51
2023-03-12T08:01:50.499Z,0.52
2023-03-12T08:02:50.611Z,0.51
2023-03-12T08:03:50.380Z,0.51
2023-03-12T08:04:50.411Z,0.51
2023-03-12T08:05:50.393Z,0.51
2023-03-12T08:06:50.437Z,0.51
2023-03-12T08:07:50.333Z,0.51
2023-03-12T08:08:50.374Z,0.52
2023-03-12T08:09:50.385Z,0.52
2023-03-12T08:10:50.330Z,0.51
2023-03-12T08:11:50.417Z,0.52
2023-03-12T08:12:50.329Z,0.50
2023-03-12T08:13:50.280Z,0.51
2023-03-12T08:14:50.358Z,0.51
2023-03-12T08:15:50.266Z,0.50
2023-03-12T08:16:50.310Z,0.51
2023-03-12T08:17:50.252Z,0.51
2023-03-12T08:18:50.237Z,0.50
2023-03-12T08:19:50.228Z,0.50
2023-03-12T08:20:50.218Z,0.51
2023-03-12T08:21:50.214Z,0.51
2023-03-12T08:22:50.644Z,0.51
2023-03-12T08:23:50.203Z,0.50
2023-03-12T08:24:50.197Z,0.51
2023-03-12T08:25:50.186Z,0.51
2023-03-12T08:26:50.172Z,0.51
2023-03-12T08:27:50.163Z,0.51
2023-03-12T08:28:50.163Z,0.51
2023-03-12T08:29:50.151Z,0.51
2023-03-12T08:30:50.162Z,0.51
2023-03-12T08:32:03.681Z,0.51
2023-03-12T08:32:50.181Z,0.51
2023-03-12T08:33:50.115Z,0.51
2023-03-12T08:34:50.101Z,0.51
2023-03-12T08:35:50.168Z,0.51
2023-03-12T08:36:50.087Z,0.52
2023-03-12T08:37:50.085Z,0.52
2023-03-12T08:38:50.102Z,0.51
2023-03-12T08:39:50.068Z,0.51
2023-03-12T08:40:50.058Z,0.51
2023-03-12T08:41:50.044Z,0.51
2023-03-12T08:42:50.039Z,0.51
2023-03-12T08:43:50.031Z,0.51
2023-03-12T08:44:50.033Z,0.51
2023-03-12T08:45:50.048Z,0.50
2023-03-12T08:46:50.024Z,0.52
2023-03-12T08:47:49.998Z,0.51
2023-03-12T08:48:49.988Z,0.51
2023-03-12T08:49:49.988Z,0.51
2023-03-12T08:50:49.973Z,0.50
2023-03-12T08:51:49.976Z,0.51
2023-03-12T08:52:49.961Z,0.51
2023-03-12T08:53:49.951Z,0.50
2023-03-12T08:54:49.970Z,0.51
2023-03-12T08:55:49.937Z,0.51
2023-03-12T08:56:49.931Z,0.51
2023-03-12T08:57:49.923Z,0.51
2023-03-12T08:58:49.910Z,0.51
2023-03-12T08:59:49.899Z,0.51
2023-03-12T09:00:49.897Z,0.51
2023-03-12T09:01:49.893Z,0.51
2023-03-12T09:02:49.950Z,0.51
2023-03-12T09:03:49.866Z,0.51
2023-03-12T09:04:49.866Z,0.51
2023-03-12T09:05:49.875Z,0.51
2023-03-12T09:06:49.847Z,0.51
2023-03-12T09:07:49.834Z,0.50
2023-03-12T09:08:49.833Z,0.51
2023-03-12T09:09:49.816Z,0.51
2023-03-12T09:10:49.844Z,0.51
2023-03-12T09:11:49.805Z,0.51
2023-03-12T09:12:49.793Z,0.50
2023-03-12T09:14:22.237Z,0.50
2023-03-12T09:15:03.092Z,0.51
2023-03-12T09:15:49.775Z,0.51
2023-03-12T09:16:49.794Z,0.51
2023-03-12T09:17:49.751Z,0.51
2023-03-12T09:18:49.744Z,0.51
2023-03-12T09:19:49.739Z,0.52
2023-03-12T09:20:49.732Z,0.52
2023-03-12T09:21:49.720Z,0.50
2023-03-12T09:22:49.713Z,0.51
2023-03-12T09:23:49.714Z,0.51
2023-03-12T09:24:49.705Z,0.51
2023-03-12T09:25:49.683Z,0.51
2023-03-12T09:26:49.701Z,0.50
2023-03-12T09:27:49.666Z,0.51
2023-03-12T09:28:49.665Z,0.51
2023-03-12T09:29:59.504Z,0.50
2023-03-12T09:30:49.672Z,0.50
2023-03-12T09:31:49.637Z,0.51
2023-03-12T09:32:49.711Z,0.51
2023-03-12T09:33:49.617Z,0.51
2023-03-12T09:34:49.601Z,0.52
2023-03-12T09:35:49.621Z,0.51
2023-03-12T09:36:49.591Z,0.51
2023-03-12T09:37:49.578Z,0.50
2023-03-12T09:38:49.570Z,0.51
2023-03-12T09:39:49.563Z,0.50
2023-03-12T09:40:49.556Z,0.51
2023-03-12T09:41:49.546Z,0.50
2023-03-12T09:42:49.568Z,0.51
2023-03-12T09:43:49.532Z,0.50
2023-03-12T09:44:49.549Z,0.50
2023-03-12T09:45:49.564Z,0.51
2023-03-12T09:46:49.503Z,0.51
2023-03-12T09:47:49.498Z,0.51
2023-03-12T09:48:49.487Z,0.51
2023-03-12T09:49:49.478Z,0.52
2023-03-12T09:50:49.476Z,0.51
2023-03-12T09:51:49.470Z,0.51
2023-03-12T09:52:49.452Z,0.51
2023-03-12T09:53:49.446Z,0.51
2023-03-12T09:54:49.442Z,0.50
2023-03-12T09:55:49.439Z,0.51
2023-03-12T09:56:49.429Z,0.52
2023-03-12T09:57:49.430Z,0.50
2023-03-12T09:58:49.435Z,0.51
2023-03-12T09:59:49.395Z,0.51
2023-03-12T10:00:49.403Z,0.51
2023-03-12T10:01:49.413Z,0.51
2023-03-12T10:02:49.373Z,0.50
2023-03-12T10:03:49.366Z,0.52
2023-03-12T10:04:59.326Z,0.51
2023-03-12T10:05:49.361Z,0.51
2023-03-12T10:06:49.338Z,0.51
2023-03-12T10:07:49.332Z,0.51
2023-03-12T10:08:49.322Z,0.51
2023-03-12T10:09:49.317Z,0.52
2023-03-12T10:10:49.314Z,0.52
2023-03-12T10:11:49.300Z,0.51
2023-03-12T10:12:49.301Z,0.51
2023-03-12T10:13:49.285Z,0.51
2023-03-12T10:14:49.331Z,0.51
2023-03-12T10:15:49.345Z,0.50
2023-03-12T10:16:49.257Z,0.50
2023-03-12T10:17:49.329Z,0.51
2023-03-12T10:18:49.364Z,0.51
2023-03-12T10:19:49.254Z,0.50
2023-03-12T10:20:49.225Z,0.51
2023-03-12T10:21:49.218Z,0.51
2023-03-12T10:22:49.211Z,0.50
2023-03-12T10:23:49.206Z,0.51
2023-03-12T10:24:49.198Z,0.50
2023-03-12T10:25:49.192Z,0.51
2023-03-12T10:26:49.176Z,0.52
2023-03-12T10:27:49.165Z,0.50
2023-03-12T10:28:49.175Z,0.51
2023-03-12T10:29:49.878Z,0.51
2023-03-12T10:30:49.178Z,0.51
2023-03-12T10:31:49.131Z,0.51
2023-03-12T10:32:49.240Z,0.51
2023-03-12T10:33:49.131Z,0.51
2023-03-12T10:34:49.117Z,0.51
2023-03-12T10:35:49.143Z,0.51
2023-03-12T10:36:49.091Z,0.51
2023-03-12T10:37:49.087Z,0.50
2023-03-12T10:38:49.074Z,0.51
2023-03-12T10:39:49.070Z,0.51
2023-03-12T10:40:49.075Z,0.51
2023-03-12T10:41:49.058Z,0.51
2023-03-12T10:42:49.041Z,0.50
2023-03-12T10:44:49.023Z,0.51
2023-03-12T10:46:49.130Z,0.50
2023-03-12T10:47:49.002Z,0.51
2023-03-12T10:48:49.007Z,0.50
2023-03-12T10:49:48.978Z,0.51
2023-03-12T10:50:48.973Z,0.51
2023-03-12T10:51:48.968Z,0.51
2023-03-12T10:52:48.959Z,0.51
2023-03-12T10:53:48.948Z,0.51
2023-03-12T10:54:48.944Z,0.51
2023-03-12T10:55:48.936Z,0.51
2023-03-12T10:56:48.923Z,0.50
2023-03-12T10:57:48.917Z,0.51
2023-03-12T10:58:48.915Z,0.50
2023-03-12T10:59:48.912Z,0.51
2023-03-12T11:00:48.913Z,0.50
2023-03-12T11:01:48.917Z,0.50
2023-03-12T11:02:48.902Z,0.50
2023-03-12T11:03:48.866Z,0.50
2023-03-12T11:04:48.855Z,0.51
2023-03-12T11:05:48.972Z,0.51
2023-03-12T11:06:48.836Z,0.50
2023-03-12T11:07:48.830Z,0.51
2023-03-12T11:08:48.820Z,0.51
2023-03-12T11:09:48.817Z,0.51
2023-03-12T11:11:48.799Z,0.51
2023-03-12T11:12:48.788Z,0.51
2023-03-12T11:13:48.775Z,0.51
2023-03-12T11:14:48.771Z,0.50
2023-03-12T11:15:48.830Z,0.51
2023-03-12T11:16:48.753Z,0.50
2023-03-12T11:17:48.748Z,0.51
2023-03-12T11:18:48.779Z,0.50
2023-03-12T11:19:48.735Z,0.51
2023-03-12T11:20:48.717Z,0.50
2023-03-12T11:21:48.709Z,0.51
2023-03-12T11:22:51.201Z,0.51
2023-03-12T11:23:48.692Z,0.51
2023-03-12T11:24:48.692Z,0.51
2023-03-12T11:25:48.670Z,0.51
2023-03-12T11:26:48.669Z,0.51
2023-03-12T11:27:48.659Z,0.52
2023-03-12T11:28:48.651Z,0.51
2023-03-12T11:29:48.791Z,0.51
2023-03-12T11:30:48.698Z,0.51
2023-03-12T11:31:48.693Z,0.51
2023-03-12T11:32:48.698Z,0.51
2023-03-12T11:33:48.608Z,0.51
2023-03-12T11:34:48.623Z,0.52
2023-03-12T11:35:48.604Z,0.51
2023-03-12T11:36:48.576Z,0.52
2023-03-12T11:37:48.579Z,0.51
2023-03-12T11:38:48.564Z,0.51
2023-03-12T11:39:48.563Z,0.51
2023-03-12T11:40:48.551Z,0.52
2023-03-12T11:41:48.533Z,0.52
2023-03-12T11:42:51.430Z,0.51
2023-03-12T11:43:48.514Z,0.51
2023-03-12T11:44:48.508Z,0.51
2023-03-12T11:45:48.501Z,0.51
2023-03-12T11:46:48.532Z,0.51
2023-03-12T11:47:48.512Z,0.51
2023-03-12T11:48:48.509Z,0.50
2023-03-12T11:49:49.777Z,0.51
2023-03-12T11:50:48.492Z,0.52
2023-03-12T11:51:48.453Z,0.52
2023-03-12T11:52:48.440Z,0.51
2023-03-12T11:53:48.441Z,0.51
2023-03-12T11:54:48.426Z,0.51
2023-03-12T11:55:48.413Z,0.50
2023-03-12T11:56:48.406Z,0.51
2023-03-12T11:57:48.395Z,0.51
2023-03-12T11:58:48.392Z,0.51
2023-03-12T11:59:48.390Z,0.51
2023-03-12T12:00:48.381Z,0.51
2023-03-12T12:01:48.361Z,0.50
2023-03-12T12:02:48.421Z,0.51
2023-03-12T12:03:48.345Z,0.50
2023-03-12T12:04:48.340Z,0.51
2023-03-12T12:05:48.336Z,0.51
2023-03-12T12:06:48.419Z,0.52
2023-03-12T12:07:48.325Z,0.51
2023-03-12T12:08:48.302Z,0.51
2023-03-12T12:09:48.303Z,0.51
2023-03-12T12:10:48.293Z,0.52
2023-03-12T12:11:48.304Z,0.51
2023-03-12T12:12:48.272Z,0.51
2023-03-12T12:13:48.273Z,0.51
2023-03-12T12:14:48.264Z,0.51
2023-03-12T12:15:48.243Z,0.50
2023-03-12T12:16:48.374Z,0.51
2023-03-12T12:17:48.231Z,0.51
2023-03-12T12:18:48.226Z,0.52
2023-03-12T12:19:48.223Z,0.51
2023-03-12T12:20:48.203Z,0.52
2023-03-12T12:21:48.196Z,0.52
2023-03-12T12:22:48.217Z,0.51
2023-03-12T12:23:48.180Z,0.52
2023-03-12T12:24:48.170Z,0.51
2023-03-12T12:25:48.165Z,0.52
2023-03-12T12:26:48.151Z,0.53
2023-03-12T12:27:48.145Z,0.51
2023-03-12T12:28:48.143Z,0.52
2023-03-12T12:29:48.127Z,0.52
2023-03-12T12:30:48.110Z,0.52
2023-03-12T12:31:48.195Z,0.51
2023-03-12T12:32:48.128Z,0.51
2023-03-12T12:33:48.099Z,0.51
2023-03-12T12:34:48.082Z,0.51
2023-03-12T12:35:48.099Z,0.51
2023-03-12T12:36:48.068Z,0.51
2023-03-12T12:37:48.059Z,0.51
2023-03-12T12:38:48.073Z,0.51
2023-03-12T12:39:48.043Z,0.51
2023-03-12T12:40:48.030Z,0.52
2023-03-12T12:41:48.023Z,0.51
2023-03-12T12:42:48.019Z,0.52
2023-03-12T12:43:48.011Z,0.51
2023-03-12T12:44:47.994Z,0.51
2023-03-12T12:45:48.050Z,0.51
2023-03-12T12:46:47.976Z,0.52
2023-03-12T12:47:47.977Z,0.52
2023-03-12T12:48:47.959Z,0.52
2023-03-12T12:49:47.956Z,0.51
2023-03-12T12:50:47.945Z,0.52
2023-03-12T12:51:47.944Z,0.52
2023-03-12T12:52:47.932Z,0.51
2023-03-12T12:53:47.915Z,0.52
2023-03-12T12:54:47.932Z,0.52
2023-03-12T12:55:47.902Z,0.52
2023-03-12T12:56:47.924Z,0.51
2023-03-12T12:57:47.882Z,0.52
2023-03-12T12:58:47.877Z,0.51
2023-03-12T12:59:47.873Z,0.51
2023-03-12T13:00:47.864Z,0.51
2023-03-12T13:01:47.899Z,0.51
2023-03-12T13:02:47.843Z,0.51
2023-03-12T13:03:47.942Z,0.51
2023-03-12T13:04:47.835Z,0.51
2023-03-12T13:05:47.834Z,0.51
2023-03-12T13:06:47.811Z,0.51
2023-03-12T13:07:47.815Z,0.51
2023-03-12T13:08:47.792Z,0.51
2023-03-12T13:09:47.788Z,0.51
2023-03-12T13:10:57.202Z,0.52
2023-03-12T13:11:47.814Z,0.52
2023-03-12T13:12:47.774Z,0.52
2023-03-12T13:13:47.756Z,0.52
2023-03-12T13:14:47.770Z,0.52
2023-03-12T13:15:47.816Z,0.51
2023-03-12T13:16:47.756Z,0.52
2023-03-12T13:17:47.718Z,0.51
2023-03-12T13:18:47.714Z,0.52
2023-03-12T13:19:55.644Z,0.52
2023-03-12T13:20:47.703Z,0.52
2023-03-12T13:21:47.691Z,0.52
2023-03-12T13:22:47.677Z,0.52
2023-03-12T13:23:47.667Z,0.52
2023-03-12T13:24:47.663Z,0.51
2023-03-12T13:25:47.649Z,0.51
2023-03-12T13:26:47.672Z,0.51
2023-03-12T13:27:47.640Z,0.52
2023-03-12T13:28:47.630Z,0.51
2023-03-12T13:29:47.618Z,0.52
2023-03-12T13:30:47.687Z,0.51
2023-03-12T13:31:47.612Z,0.51
2023-03-12T13:32:47.750Z,0.52
2023-03-12T13:33:47.596Z,0.52
2023-03-12T13:34:47.683Z,0.51
2023-03-12T13:35:47.596Z,0.52
2023-03-12T13:36:47.557Z,0.51
2023-03-12T13:37:47.567Z,0.51
2023-03-12T13:38:47.597Z,0.51
2023-03-12T13:39:47.542Z,0.51
2023-03-12T13:40:47.532Z,0.51
2023-03-12T13:41:47.529Z,0.51
2023-03-12T13:42:47.544Z,0.51
2023-03-12T13:43:47.502Z,0.51
2023-03-12T13:44:47.493Z,0.51
2023-03-12T13:45:47.615Z,0.51
2023-03-12T13:46:47.566Z,0.51
2023-03-12T13:47:47.477Z,0.51
2023-03-12T13:48:47.463Z,0.51
2023-03-12T13:49:47.448Z,0.51
2023-03-12T13:50:47.440Z,0.51
2023-03-12T13:51:47.458Z,0.51
2023-03-12T13:52:47.421Z,0.51
2023-03-12T13:53:47.418Z,0.51
2023-03-12T13:54:47.408Z,0.51
2023-03-12T13:55:47.406Z,0.51
2023-03-12T13:56:47.395Z,0.52
2023-03-12T13:57:47.375Z,0.51
2023-03-12T13:58:47.401Z,0.51
2023-03-12T13:59:47.363Z,0.51
2023-03-12T14:00:47.361Z,0.51
2023-03-12T14:01:47.416Z,0.51
2023-03-12T14:02:47.384Z,0.51
2023-03-12T14:03:47.330Z,0.51
2023-03-12T14:04:47.389Z,0.52
2023-03-12T14:05:47.314Z,0.51
2023-03-12T14:06:47.301Z,0.51
2023-03-12T14:07:47.293Z,0.51
2023-03-12T14:08:47.288Z,0.51
2023-03-12T14:09:47.278Z,0.51
2023-03-12T14:10:47.277Z,0.51
2023-03-12T14:11:47.262Z,0.51
2023-03-12T14:12:47.251Z,0.50
2023-03-12T14:13:47.245Z,0.51
2023-03-12T14:14:47.270Z,0.51
2023-03-12T14:15:47.282Z,0.51